createdAt,value
2018-04-26T00:00:13.124Z,15.9
2018-04-26T00:01:17.451Z,15.9
2018-04-26T00:02:20.698Z,15.9
2018-04-26T00:03:22.573Z,15.9
2018-04-26T00:04:23.859Z,15.8
2018-04-26T00:05:25.239Z,15.8
2018-04-26T00:06:26.559Z,15.8
2018-04-26T00:07:27.870Z,15.8
2018-04-26T00:08:29.184Z,15.8
2018-04-26T00:09:30.494Z,15.8
2018-04-26T00:10:31.887Z,15.8
2018-04-26T00:11:33.176Z,15.8
2018-04-26T00:12:34.521Z,15.8
2018-04-26T00:13:35.854Z,15.7
2018-04-26T00:14:37.211Z,15.7
2018-04-26T00:15:38.579Z,15.7
2018-04-26T00:16:39.878Z,15.7
2018-04-26T00:17:41.322Z,15.7
2018-04-26T00:18:42.637Z,15.7
2018-04-26T00:19:43.979Z,15.6
2018-04-26T00:20:45.330Z,15.6
2018-04-26T00:21:46.671Z,15.6
2018-04-26T00:22:48.266Z,15.6
2018-04-26T00:23:49.617Z,15.6
2018-04-26T00:24:50.943Z,15.6
2018-04-26T00:25:52.468Z,15.6
2018-04-26T00:26:56.646Z,15.6
2018-04-26T00:27:57.992Z,15.6
2018-04-26T00:28:59.319Z,15.6
2018-04-26T00:30:00.677Z,15.6
2018-04-26T00:31:02.036Z,15.6
2018-04-26T00:32:03.381Z,15.6
2018-04-26T00:33:04.719Z,15.6
2018-04-26T00:34:06.076Z,15.6
2018-04-26T00:35:07.398Z,15.6
2018-04-26T00:36:08.759Z,15.6
2018-04-26T00:37:10.086Z,15.6
2018-04-26T00:38:11.394Z,15.6
2018-04-26T00:39:12.709Z,15.5
2018-04-26T00:40:14.045Z,15.5
2018-04-26T00:41:15.815Z,15.6
2018-04-26T00:42:19.252Z,15.5
2018-04-26T00:43:20.591Z,15.5
2018-04-26T00:44:21.956Z,15.5
2018-04-26T00:45:23.581Z,15.4
2018-04-26T00:46:24.946Z,15.5
2018-04-26T00:47:27.356Z,15.5
2018-04-26T00:48:31.481Z,15.4
2018-04-26T00:49:32.810Z,15.5
2018-04-26T00:50:34.182Z,15.4
2018-04-26T00:51:35.574Z,15.4
2018-04-26T00:52:36.935Z,15.4
2018-04-26T00:53:38.321Z,15.4
2018-04-26T00:54:39.661Z,15.2
2018-04-26T00:55:41.071Z,15.4
2018-04-26T00:56:42.787Z,15.3
2018-04-26T00:57:44.206Z,15.3
2018-04-26T00:58:45.593Z,15.3
2018-04-26T00:59:46.980Z,15.3
2018-04-26T01:00:48.318Z,15.3
2018-04-26T01:01:49.958Z,15.3
2018-04-26T01:02:51.300Z,15.2
2018-04-26T01:03:52.640Z,15.3
2018-04-26T01:04:53.960Z,15.3
2018-04-26T01:05:55.331Z,15.3
2018-04-26T01:06:56.701Z,15.3
2018-04-26T01:07:58.026Z,15.2
2018-04-26T01:08:59.349Z,15.2
2018-04-26T01:10:00.723Z,15.2
2018-04-26T01:11:02.065Z,15.2
2018-04-26T01:12:03.444Z,15.2
2018-04-26T01:13:04.881Z,15.2
2018-04-26T01:14:06.150Z,15.2
2018-04-26T01:15:07.493Z,15.2
2018-04-26T01:16:08.851Z,15.2
2018-04-26T01:17:10.236Z,15.2
2018-04-26T01:18:11.547Z,15.2
2018-04-26T01:19:12.854Z,15.1
2018-04-26T01:20:14.227Z,15.1
2018-04-26T01:21:15.549Z,15.1
2018-04-26T01:22:16.881Z,15.1
2018-04-26T01:23:18.205Z,15.1
2018-04-26T01:24:19.551Z,15.1
2018-04-26T01:25:20.912Z,15.1
2018-04-26T01:26:22.231Z,15.1
2018-04-26T01:27:23.620Z,15.1
2018-04-26T01:28:24.966Z,15
2018-04-26T01:29:26.270Z,15
2018-04-26T01:30:27.629Z,15
2018-04-26T01:31:28.908Z,15
2018-04-26T01:32:30.340Z,15
2018-04-26T01:33:31.636Z,15
2018-04-26T01:34:32.969Z,15.1
2018-04-26T01:35:34.339Z,15
2018-04-26T01:36:35.658Z,15
2018-04-26T01:37:37.007Z,15
2018-04-26T01:38:38.327Z,15
2018-04-26T01:39:39.637Z,15
2018-04-26T01:40:41.003Z,15
2018-04-26T01:41:42.361Z,14.9
2018-04-26T01:42:43.929Z,15
2018-04-26T01:43:45.268Z,14.9
2018-04-26T01:44:46.570Z,14.9
2018-04-26T01:45:47.869Z,14.9
2018-04-26T01:46:49.222Z,14.9
2018-04-26T01:47:50.576Z,14.9
2018-04-26T01:48:51.935Z,14.9
2018-04-26T01:49:53.301Z,14.9
2018-04-26T01:50:54.709Z,14.9
2018-04-26T01:51:56.161Z,14.9
2018-04-26T01:52:57.532Z,14.9
2018-04-26T01:53:58.862Z,14.9
2018-04-26T01:55:00.241Z,14.7
2018-04-26T01:56:01.711Z,14.7
2018-04-26T01:57:03.041Z,14.9
2018-04-26T01:58:04.402Z,14.9
2018-04-26T01:59:05.756Z,14.9
2018-04-26T02:00:07.134Z,14.9
2018-04-26T02:01:08.541Z,14.9
2018-04-26T02:02:09.864Z,14.8
2018-04-26T02:03:11.221Z,14.8
2018-04-26T02:04:12.558Z,14.8
2018-04-26T02:05:13.859Z,14.8
2018-04-26T02:06:15.179Z,14.8
2018-04-26T02:07:16.497Z,14.8
2018-04-26T02:08:17.847Z,14.8
2018-04-26T02:09:19.146Z,14.8
2018-04-26T02:10:20.459Z,14.8
2018-04-26T02:11:21.785Z,14.8
2018-04-26T02:12:23.107Z,14.8
2018-04-26T02:13:24.464Z,14.8
2018-04-26T02:14:25.795Z,14.8
2018-04-26T02:15:27.122Z,14.7
2018-04-26T02:16:28.422Z,14.7
2018-04-26T02:17:29.748Z,14.7
2018-04-26T02:18:31.110Z,14.7
2018-04-26T02:19:32.420Z,14.7
2018-04-26T02:20:33.737Z,14.7
2018-04-26T02:21:35.135Z,14.7
2018-04-26T02:22:36.553Z,14.7
2018-04-26T02:23:37.918Z,14.7
2018-04-26T02:24:39.228Z,14.6
2018-04-26T02:25:40.575Z,14.6
2018-04-26T02:26:41.951Z,14.6
2018-04-26T02:27:43.268Z,14.6
2018-04-26T02:28:45.015Z,14.6
2018-04-26T02:29:46.360Z,14.5
2018-04-26T02:30:47.694Z,14.6
2018-04-26T02:31:49.022Z,14.6
2018-04-26T02:32:50.694Z,14.6
2018-04-26T02:33:52.040Z,14.6
2018-04-26T02:34:53.351Z,14.6
2018-04-26T02:35:54.681Z,14.6
2018-04-26T02:36:56.042Z,14.6
2018-04-26T02:37:57.382Z,14.6
2018-04-26T02:38:58.737Z,14.5
2018-04-26T02:40:00.041Z,14.5
2018-04-26T02:41:01.391Z,14.5
2018-04-26T02:42:02.743Z,14.5
2018-04-26T02:43:04.153Z,14.4
2018-04-26T02:44:05.504Z,14.4
2018-04-26T02:45:06.891Z,14.4
2018-04-26T02:46:08.356Z,14.5
2018-04-26T02:47:09.706Z,14.5
2018-04-26T02:48:11.067Z,14.5
2018-04-26T02:49:12.437Z,14.4
2018-04-26T02:50:13.866Z,14.4
2018-04-26T02:51:15.258Z,14.4
2018-04-26T02:52:16.671Z,14.4
2018-04-26T02:53:17.992Z,14.4
2018-04-26T02:54:19.355Z,14.4
2018-04-26T02:55:20.677Z,14.4
2018-04-26T02:56:21.974Z,14.4
2018-04-26T02:57:23.299Z,14.3
2018-04-26T02:58:24.635Z,14.3
2018-04-26T02:59:26.262Z,14.3
2018-04-26T03:00:27.621Z,14.3
2018-04-26T03:01:28.936Z,14.3
2018-04-26T03:02:30.256Z,14.3
2018-04-26T03:03:31.610Z,14.3
2018-04-26T03:04:33.016Z,14.3
2018-04-26T03:05:34.316Z,14.3
2018-04-26T03:06:35.723Z,14.3
2018-04-26T03:07:37.066Z,14.3
2018-04-26T03:08:38.373Z,14.3
2018-04-26T03:09:39.763Z,14.3
2018-04-26T03:10:41.105Z,14.3
2018-04-26T03:11:42.413Z,14.2
2018-04-26T03:12:43.736Z,14.2
2018-04-26T03:13:45.084Z,14.2
2018-04-26T03:14:46.671Z,14.1
2018-04-26T03:15:47.929Z,14.2
2018-04-26T03:16:49.239Z,14.2
2018-04-26T03:17:50.563Z,14.2
2018-04-26T03:18:51.898Z,14.1
2018-04-26T03:19:53.297Z,14.1
2018-04-26T03:20:54.627Z,14.1
2018-04-26T03:21:56.009Z,14.1
2018-04-26T03:22:57.316Z,14.1
2018-04-26T03:23:58.615Z,14.1
2018-04-26T03:24:59.960Z,14.1
2018-04-26T03:26:01.284Z,14.1
2018-04-26T03:27:02.604Z,14.1
2018-04-26T03:28:03.947Z,14.1
2018-04-26T03:29:06.761Z,14
2018-04-26T03:30:08.256Z,14.1
2018-04-26T03:31:09.592Z,14
2018-04-26T03:32:10.933Z,14
2018-04-26T03:33:12.276Z,14
2018-04-26T03:34:13.643Z,14
2018-04-26T03:35:15.027Z,14
2018-04-26T03:36:16.383Z,14
2018-04-26T03:37:17.812Z,14
2018-04-26T03:38:19.122Z,13.9
2018-04-26T03:39:20.436Z,14
2018-04-26T03:40:21.801Z,14
2018-04-26T03:41:23.198Z,14
2018-04-26T03:42:24.528Z,14
2018-04-26T03:43:25.902Z,13.9
2018-04-26T03:44:27.275Z,13.9
2018-04-26T03:45:28.775Z,13.9
2018-04-26T03:46:30.212Z,13.9
2018-04-26T03:47:31.879Z,13.9
2018-04-26T03:48:33.313Z,13.9
2018-04-26T03:49:34.668Z,13.9
2018-04-26T03:50:39.142Z,13.9
2018-04-26T03:51:40.497Z,13.9
2018-04-26T03:52:41.891Z,13.9
2018-04-26T03:53:43.268Z,13.9
2018-04-26T03:54:44.589Z,13.9
2018-04-26T03:55:45.938Z,13.9
2018-04-26T03:56:47.243Z,13.9
2018-04-26T03:57:48.554Z,13.9
2018-04-26T03:58:49.937Z,13.9
2018-04-26T03:59:51.266Z,13.9
2018-04-26T04:00:52.689Z,13.9
2018-04-26T04:01:54.028Z,13.8
2018-04-26T04:02:55.340Z,13.8
2018-04-26T04:03:56.671Z,13.8
2018-04-26T04:04:57.992Z,13.8
2018-04-26T04:05:59.351Z,13.8
2018-04-26T04:07:00.665Z,13.8
2018-04-26T04:08:02.001Z,13.7
2018-04-26T04:09:03.302Z,13.8
2018-04-26T04:10:04.642Z,13.8
2018-04-26T04:11:06.045Z,13.8
2018-04-26T04:12:07.370Z,13.7
2018-04-26T04:13:08.672Z,13.8
2018-04-26T04:14:09.998Z,13.8
2018-04-26T04:15:11.368Z,13.8
2018-04-26T04:16:12.774Z,13.8
2018-04-26T04:17:14.086Z,13.8
2018-04-26T04:18:15.424Z,13.8
2018-04-26T04:19:16.737Z,13.8
2018-04-26T04:20:18.032Z,13.8
2018-04-26T04:21:19.394Z,13.8
2018-04-26T04:22:20.771Z,13.8
2018-04-26T04:23:22.074Z,13.8
2018-04-26T04:24:23.393Z,13.8
2018-04-26T04:25:24.713Z,13.8
2018-04-26T04:26:26.113Z,13.8
2018-04-26T04:27:27.431Z,13.7
2018-04-26T04:28:28.828Z,13.7
2018-04-26T04:29:30.166Z,13.6
2018-04-26T04:30:31.485Z,13.8
2018-04-26T04:31:33.062Z,13.7
2018-04-26T04:32:34.401Z,13.8
2018-04-26T04:33:35.759Z,13.8
2018-04-26T04:34:37.062Z,13.8
2018-04-26T04:35:38.393Z,13.8
2018-04-26T04:36:39.800Z,13.7
2018-04-26T04:37:41.167Z,13.8
2018-04-26T04:38:42.529Z,13.8
2018-04-26T04:39:43.922Z,13.7
2018-04-26T04:40:45.246Z,13.7
2018-04-26T04:41:46.740Z,13.7
2018-04-26T04:42:48.189Z,13.7
2018-04-26T04:43:49.576Z,13.6
2018-04-26T04:44:50.976Z,13.7
2018-04-26T04:45:54.248Z,13.6
2018-04-26T04:46:55.934Z,13.7
2018-04-26T04:47:57.369Z,13.6
2018-04-26T04:48:58.791Z,13.8
2018-04-26T04:50:00.407Z,13.8
2018-04-26T04:51:01.865Z,13.8
2018-04-26T04:52:03.270Z,13.8
2018-04-26T04:53:04.614Z,13.8
2018-04-26T04:54:05.943Z,13.8
2018-04-26T04:55:07.357Z,13.8
2018-04-26T04:56:08.754Z,13.7
2018-04-26T04:57:10.116Z,13.8
2018-04-26T04:58:11.494Z,13.8
2018-04-26T04:59:12.831Z,13.9
2018-04-26T05:00:14.238Z,13.9
2018-04-26T05:02:31.813Z,14
2018-04-26T05:03:33.365Z,14.1
2018-04-26T05:04:34.858Z,14.2
2018-04-26T05:05:36.420Z,14.2
2018-04-26T05:06:37.780Z,14.1
2018-04-26T05:07:39.224Z,14.1
2018-04-26T05:08:40.613Z,14.1
2018-04-26T05:09:41.934Z,14
2018-04-26T05:10:43.541Z,14
2018-04-26T05:11:44.994Z,14
2018-04-26T05:12:46.456Z,13.9
2018-04-26T05:13:47.953Z,14
2018-04-26T05:14:49.255Z,14
2018-04-26T05:15:50.585Z,14
2018-04-26T05:16:51.928Z,14
2018-04-26T05:17:53.425Z,14
2018-04-26T05:18:54.762Z,14
2018-04-26T05:19:56.126Z,14
2018-04-26T05:20:57.550Z,14
2018-04-26T05:21:59.391Z,14
2018-04-26T05:24:08.157Z,14.1
2018-04-26T05:25:09.505Z,14.1
2018-04-26T05:26:12.031Z,13.9
2018-04-26T05:27:13.423Z,14
2018-04-26T05:28:14.816Z,14.1
2018-04-26T05:29:16.194Z,14.1
2018-04-26T05:30:17.617Z,14.2
2018-04-26T05:31:18.941Z,14.2
2018-04-26T05:32:22.470Z,14.2
2018-04-26T05:33:24.031Z,14.1
2018-04-26T05:34:25.428Z,14.2
2018-04-26T05:35:26.823Z,14.2
2018-04-26T05:36:30.911Z,14.2
2018-04-26T05:37:32.281Z,14.3
2018-04-26T05:38:33.737Z,14.2
2018-04-26T05:39:35.113Z,14.2
2018-04-26T05:40:36.716Z,14.2
2018-04-26T05:41:37.966Z,14.2
2018-04-26T05:42:39.334Z,14.1
2018-04-26T05:43:40.723Z,14.1
2018-04-26T05:44:42.079Z,14.2
2018-04-26T05:45:43.462Z,14.2
2018-04-26T05:46:44.884Z,14.2
2018-04-26T05:47:46.196Z,14.2
2018-04-26T05:48:47.661Z,14.1
2018-04-26T05:49:49.009Z,14.2
2018-04-26T05:50:50.353Z,14.2
2018-04-26T05:51:51.703Z,14.2
2018-04-26T05:52:53.092Z,14.1
2018-04-26T05:53:54.530Z,14.3
2018-04-26T05:54:56.254Z,14.3
2018-04-26T05:55:57.761Z,14.1
2018-04-26T05:56:59.113Z,14.3
2018-04-26T05:58:00.555Z,14.3
2018-04-26T05:59:01.954Z,14.3
2018-04-26T06:00:03.446Z,14.2
2018-04-26T06:01:05.072Z,14.4
2018-04-26T06:02:06.442Z,14.3
2018-04-26T06:03:07.860Z,14.3
2018-04-26T06:04:09.498Z,14.3
2018-04-26T06:05:10.978Z,14.3
2018-04-26T06:06:12.498Z,14.3
2018-04-26T06:07:19.049Z,14.5
2018-04-26T06:08:20.430Z,14.7
2018-04-26T06:09:21.836Z,14.8
2018-04-26T06:10:23.241Z,14.8
2018-04-26T06:11:24.828Z,14.9
2018-04-26T06:12:26.094Z,15.1
2018-04-26T06:13:27.886Z,15
2018-04-26T06:14:29.367Z,15.2
2018-04-26T06:15:30.797Z,15.4
2018-04-26T06:16:32.290Z,15.5
2018-04-26T06:17:33.692Z,15.5
2018-04-26T06:18:35.186Z,15.6
2018-04-26T06:19:38.574Z,15.5
2018-04-26T06:20:43.206Z,15.6
2018-04-26T06:21:45.622Z,15.4
2018-04-26T06:22:47.139Z,15.6
2018-04-26T06:23:48.655Z,15.6
2018-04-26T06:24:50.792Z,15.7
2018-04-26T06:25:53.990Z,15.7
2018-04-26T06:27:02.341Z,15.7
2018-04-26T06:28:10.201Z,15.7
2018-04-26T06:29:12.140Z,15.6
2018-04-26T06:30:13.578Z,15.6
2018-04-26T06:31:14.940Z,15.9
2018-04-26T06:32:16.365Z,15.9
2018-04-26T06:33:17.721Z,15.9
2018-04-26T06:34:26.637Z,15.9
2018-04-26T06:35:28.670Z,16
2018-04-26T06:36:30.137Z,16.1
2018-04-26T06:37:31.573Z,16
2018-04-26T06:38:33.047Z,16.1
2018-04-26T06:39:34.519Z,16.1
2018-04-26T06:40:35.946Z,16.1
2018-04-26T06:41:37.484Z,16.1
2018-04-26T06:42:41.596Z,16.2
2018-04-26T06:43:49.909Z,16.1
2018-04-26T06:44:51.448Z,16.1
2018-04-26T06:45:52.826Z,16.3
2018-04-26T06:46:54.285Z,16.3
2018-04-26T06:47:55.785Z,16.4
2018-04-26T06:48:57.205Z,16.5
2018-04-26T06:49:58.663Z,16.6
2018-04-26T06:51:00.503Z,16.5
2018-04-26T06:52:01.984Z,16.5
2018-04-26T06:53:03.549Z,16.3
2018-04-26T06:54:05.036Z,16.6
2018-04-26T06:55:06.609Z,16.7
2018-04-26T06:56:15.514Z,16.9
2018-04-26T06:57:17.119Z,16.9
2018-04-26T06:58:18.567Z,16.7
2018-04-26T06:59:20.109Z,16.8
2018-04-26T07:00:21.564Z,16.8
2018-04-26T07:01:23.092Z,16.9
2018-04-26T07:02:24.600Z,16.9
2018-04-26T07:03:26.039Z,16.9
2018-04-26T07:04:32.767Z,16.8
2018-04-26T07:05:35.423Z,16.8
2018-04-26T07:06:43.344Z,16.9
2018-04-26T07:07:44.839Z,17
2018-04-26T07:08:46.369Z,17
2018-04-26T07:09:47.928Z,17.1
2018-04-26T07:10:49.525Z,17
2018-04-26T07:11:50.954Z,17.2
2018-04-26T07:12:52.482Z,17.3
2018-04-26T07:13:54.003Z,17.3
2018-04-26T07:14:55.527Z,17.1
2018-04-26T07:15:59.114Z,17
2018-04-26T07:17:00.615Z,17
2018-04-26T07:18:02.255Z,17
2018-04-26T07:19:04.874Z,17.2
2018-04-26T07:20:06.432Z,17.3
2018-04-26T07:21:13.312Z,17.2
2018-04-26T07:22:21.303Z,17.3
2018-04-26T07:23:22.813Z,17.2
2018-04-26T07:24:24.280Z,17.3
2018-04-26T07:25:25.846Z,17.4
2018-04-26T07:26:35.395Z,17.4
2018-04-26T07:27:37.391Z,17.4
2018-04-26T07:29:55.846Z,17.5
2018-04-26T07:30:57.414Z,17.5
2018-04-26T07:31:58.836Z,17.5
2018-04-26T07:33:00.399Z,17.5
2018-04-26T07:34:03.053Z,17.4
2018-04-26T07:35:04.513Z,17.4
2018-04-26T07:36:15.171Z,17.5
2018-04-26T07:37:18.324Z,17.5
2018-04-26T07:38:26.585Z,17.4
2018-04-26T07:39:28.214Z,17.4
2018-04-26T07:40:29.611Z,17.5
2018-04-26T07:41:31.041Z,17.5
2018-04-26T07:42:33.976Z,17.5
2018-04-26T07:43:35.527Z,17.5
2018-04-26T07:44:39.871Z,17.5
2018-04-26T07:45:41.421Z,17.5
2018-04-26T07:46:43.047Z,17.5
2018-04-26T07:47:45.789Z,17.4
2018-04-26T07:48:52.812Z,17.5
2018-04-26T07:49:54.791Z,17.6
2018-04-26T07:50:56.984Z,17.6
2018-04-26T07:51:58.702Z,17.4
2018-04-26T07:53:00.139Z,17.6
2018-04-26T07:54:01.747Z,17.5
2018-04-26T07:55:03.182Z,17.6
2018-04-26T07:56:04.602Z,17.6
2018-04-26T07:57:06.152Z,17.5
2018-04-26T07:58:09.015Z,17.5
2018-04-26T07:59:13.834Z,17.5
2018-04-26T08:00:16.498Z,17.5
2018-04-26T08:01:18.159Z,17.5
2018-04-26T08:02:19.795Z,17.5
2018-04-26T08:03:21.430Z,17.5
2018-04-26T08:05:38.652Z,17.5
2018-04-26T08:06:40.248Z,17.5
2018-04-26T08:07:44.602Z,17.5
2018-04-26T08:08:45.993Z,17.4
2018-04-26T08:09:47.449Z,17.4
2018-04-26T08:10:48.875Z,17.4
2018-04-26T08:12:01.612Z,17.5
2018-04-26T08:13:04.537Z,17.5
2018-04-26T08:14:08.651Z,17.6
2018-04-26T08:15:11.660Z,17.6
2018-04-26T08:16:18.617Z,17.6
2018-04-26T08:17:27.679Z,17.7
2018-04-26T08:18:30.203Z,17.6
2018-04-26T08:19:31.732Z,17.8
2018-04-26T08:20:35.135Z,17.8
2018-04-26T08:21:36.815Z,17.8
2018-04-26T08:22:42.607Z,17.8
2018-04-26T08:23:44.087Z,17.9
2018-04-26T08:24:45.697Z,17.9
2018-04-26T08:25:47.915Z,17.9
2018-04-26T08:26:51.908Z,17.9
2018-04-26T08:27:54.429Z,18
2018-04-26T08:28:56.271Z,17.8
2018-04-26T08:30:08.293Z,17.9
2018-04-26T08:31:11.358Z,17.9
2018-04-26T08:32:13.107Z,18
2018-04-26T08:33:14.748Z,17.8
2018-04-26T08:34:16.657Z,17.9
2018-04-26T08:35:26.181Z,17.9
2018-04-26T08:36:28.802Z,17.9
2018-04-26T08:37:30.241Z,17.9
2018-04-26T08:38:34.974Z,17.9
2018-04-26T08:39:36.734Z,17.8
2018-04-26T08:40:38.647Z,17.9
2018-04-26T08:41:40.260Z,17.8
2018-04-26T08:42:45.180Z,18
2018-04-26T08:43:48.260Z,17.8
2018-04-26T08:45:05.327Z,18
2018-04-26T08:46:18.617Z,18
2018-04-26T08:47:20.350Z,18
2018-04-26T08:48:22.111Z,18
2018-04-26T08:49:23.744Z,17.9
2018-04-26T08:50:25.519Z,18
2018-04-26T08:51:27.242Z,18.2
2018-04-26T08:52:28.941Z,18.2
2018-04-26T08:53:30.654Z,18.2
2018-04-26T08:54:37.000Z,18.2
2018-04-26T08:55:39.387Z,18.2
2018-04-26T08:56:41.008Z,18.2
2018-04-26T08:57:49.337Z,18.2
2018-04-26T08:58:51.106Z,18.2
2018-04-26T09:00:11.773Z,18.2
2018-04-26T09:01:19.803Z,18.2
2018-04-26T09:02:21.308Z,18.2
2018-04-26T09:03:22.808Z,18.3
2018-04-26T09:04:24.514Z,18.4
2018-04-26T09:05:26.326Z,18.4
2018-04-26T09:06:28.595Z,18.4
2018-04-26T09:07:32.985Z,18.4
2018-04-26T09:08:35.871Z,18.5
2018-04-26T09:09:37.338Z,18.4
2018-04-26T09:10:42.765Z,18.4
2018-04-26T09:11:49.665Z,18.4
2018-04-26T09:12:51.173Z,18.4
2018-04-26T09:14:59.945Z,18.6
2018-04-26T09:16:01.442Z,18.6
2018-04-26T09:17:02.938Z,18.6
2018-04-26T09:18:04.504Z,18.6
2018-04-26T09:20:24.651Z,18.7
2018-04-26T09:21:26.056Z,18.7
2018-04-26T09:22:41.807Z,18.8
2018-04-26T09:23:44.734Z,18.8
2018-04-26T09:24:58.704Z,18.7
2018-04-26T09:26:22.381Z,18.8
2018-04-26T09:27:32.073Z,18.9
2018-04-26T09:28:36.392Z,18.8
2018-04-26T09:29:38.005Z,18.9
2018-04-26T09:30:39.776Z,18.8
2018-04-26T09:31:41.386Z,18.8
2018-04-26T09:32:43.072Z,18.8
2018-04-26T09:33:50.650Z,19
2018-04-26T09:34:52.528Z,19
2018-04-26T09:35:54.048Z,18.9
2018-04-26T09:36:55.595Z,19
2018-04-26T09:37:57.130Z,18.9
2018-04-26T09:39:01.590Z,19.1
2018-04-26T09:40:03.241Z,19.1
2018-04-26T09:41:18.452Z,19
2018-04-26T09:42:20.148Z,19.2
2018-04-26T09:43:21.729Z,19.2
2018-04-26T09:44:28.949Z,19.2
2018-04-26T09:45:33.549Z,19.2
2018-04-26T09:46:35.560Z,19.2
2018-04-26T09:47:37.085Z,19.2
2018-04-26T09:48:38.993Z,19.1
2018-04-26T09:49:40.554Z,19.1
2018-04-26T09:50:42.243Z,19.2
2018-04-26T09:52:51.730Z,19.1
2018-04-26T09:53:53.278Z,19.3
2018-04-26T09:54:54.824Z,19.4
2018-04-26T09:56:03.041Z,19.4
2018-04-26T09:57:04.654Z,19.3
2018-04-26T09:58:06.164Z,19.4
2018-04-26T09:59:07.736Z,19.3
2018-04-26T10:00:09.284Z,19.4
2018-04-26T10:01:10.921Z,19.3
2018-04-26T10:02:12.621Z,19.5
2018-04-26T10:03:14.508Z,19.5
2018-04-26T10:04:19.572Z,19.5
2018-04-26T10:05:27.520Z,19.5
2018-04-26T10:06:29.255Z,19.5
2018-04-26T10:07:30.772Z,19.5
2018-04-26T10:08:32.221Z,19.4
2018-04-26T10:09:33.688Z,19.4
2018-04-26T10:10:41.175Z,19.5
2018-04-26T10:11:42.908Z,19.5
2018-04-26T10:12:44.579Z,19.5
2018-04-26T10:13:53.585Z,19.5
2018-04-26T10:16:16.181Z,19.5
2018-04-26T10:17:17.892Z,19.6
2018-04-26T10:18:22.435Z,19.5
2018-04-26T10:19:23.847Z,19.6
2018-04-26T10:20:25.349Z,19.6
2018-04-26T10:21:26.894Z,19.6
2018-04-26T10:22:28.588Z,19.6
2018-04-26T10:23:30.420Z,19.6
2018-04-26T10:24:33.219Z,19.6
2018-04-26T10:25:37.164Z,19.6
2018-04-26T10:26:38.800Z,19.6
2018-04-26T10:27:40.300Z,19.5
2018-04-26T10:28:44.020Z,19.6
2018-04-26T10:29:45.563Z,19.7
2018-04-26T10:30:54.704Z,19.6
2018-04-26T10:32:01.101Z,19.6
2018-04-26T10:33:21.733Z,19.7
2018-04-26T10:34:23.243Z,19.7
2018-04-26T10:35:24.826Z,19.7
2018-04-26T10:36:33.307Z,19.6
2018-04-26T10:37:36.703Z,19.8
2018-04-26T10:38:40.309Z,19.8
2018-04-26T10:39:43.668Z,19.8
2018-04-26T10:40:45.280Z,19.7
2018-04-26T10:41:50.568Z,19.8
2018-04-26T10:42:52.579Z,19.8
2018-04-26T10:43:54.192Z,19.8
2018-04-26T10:44:55.848Z,19.8
2018-04-26T10:45:57.417Z,19.8
2018-04-26T10:46:59.158Z,19.9
2018-04-26T10:48:00.651Z,19.8
2018-04-26T10:49:02.156Z,19.9
2018-04-26T10:50:03.712Z,19.8
2018-04-26T10:51:18.658Z,19.8
2018-04-26T10:52:24.456Z,19.8
2018-04-26T10:53:26.383Z,19.8
2018-04-26T10:54:27.967Z,19.9
2018-04-26T10:55:29.615Z,19.8
2018-04-26T10:56:34.533Z,19.9
2018-04-26T10:57:36.016Z,19.9
2018-04-26T10:58:37.770Z,19.9
2018-04-26T10:59:39.472Z,19.8
2018-04-26T11:00:41.127Z,19.9
2018-04-26T11:01:42.695Z,20
2018-04-26T11:02:44.306Z,20
2018-04-26T11:03:45.796Z,20
2018-04-26T11:04:47.794Z,19.8
2018-04-26T11:05:49.630Z,19.8
2018-04-26T11:06:57.441Z,20
2018-04-26T11:08:02.937Z,19.8
2018-04-26T11:09:04.558Z,19.9
2018-04-26T11:10:07.884Z,19.8
2018-04-26T11:11:12.505Z,19.9
2018-04-26T11:12:13.960Z,19.9
2018-04-26T11:13:18.879Z,19.9
2018-04-26T11:14:26.311Z,19.9
2018-04-26T11:15:29.428Z,19.9
2018-04-26T11:16:31.394Z,20
2018-04-26T11:17:34.878Z,20
2018-04-26T11:18:36.381Z,20
2018-04-26T11:19:48.949Z,20
2018-04-26T11:20:55.464Z,20
2018-04-26T11:21:58.632Z,20
2018-04-26T11:23:00.340Z,20
2018-04-26T11:25:20.030Z,20
2018-04-26T11:26:23.284Z,20
2018-04-26T11:27:29.628Z,20
2018-04-26T11:28:32.186Z,19.9
2018-04-26T11:29:42.879Z,20
2018-04-26T11:30:44.627Z,20.1
2018-04-26T11:31:47.390Z,20.1
2018-04-26T11:33:57.332Z,20
2018-04-26T11:34:59.174Z,20.1
2018-04-26T11:36:00.580Z,20.1
2018-04-26T11:37:07.695Z,20.1
2018-04-26T11:38:09.374Z,20.1
2018-04-26T11:39:10.951Z,20.1
2018-04-26T11:40:14.821Z,20.1
2018-04-26T11:41:16.243Z,20.2
2018-04-26T11:42:18.029Z,20.2
2018-04-26T11:43:19.749Z,20.1
2018-04-26T11:44:21.435Z,20.3
2018-04-26T11:45:24.140Z,20.3
2018-04-26T11:46:26.682Z,20.3
2018-04-26T11:47:28.423Z,20.3
2018-04-26T11:48:35.208Z,20.2
2018-04-26T11:49:37.968Z,20.2
2018-04-26T11:50:39.419Z,20.2
2018-04-26T11:51:40.923Z,20.3
2018-04-26T11:52:42.570Z,20.3
2018-04-26T11:53:46.812Z,20.2
2018-04-26T11:54:48.424Z,20.2
2018-04-26T11:55:52.360Z,20.3
2018-04-26T11:56:56.812Z,20.3
2018-04-26T11:57:58.201Z,20.3
2018-04-26T11:58:59.710Z,20.3
2018-04-26T12:00:01.152Z,20.3
2018-04-26T12:01:03.118Z,20.3
2018-04-26T12:02:12.854Z,20.4
2018-04-26T12:03:17.979Z,20.4
2018-04-26T12:04:22.377Z,20.3
2018-04-26T12:05:23.777Z,20.3
2018-04-26T12:06:25.201Z,20.4
2018-04-26T12:07:32.640Z,20.4
2018-04-26T12:08:34.210Z,20.4
2018-04-26T12:09:35.676Z,20.4
2018-04-26T12:10:38.322Z,20.4
2018-04-26T12:11:39.689Z,20.4
2018-04-26T12:12:41.053Z,20.3
2018-04-26T12:13:42.427Z,20.5
2018-04-26T12:14:43.843Z,20.5
2018-04-26T12:15:45.227Z,20.5
2018-04-26T12:16:46.579Z,20.5
2018-04-26T12:17:55.776Z,20.5
2018-04-26T12:18:57.163Z,20.5
2018-04-26T12:19:58.623Z,20.5
2018-04-26T12:21:00.273Z,20.5
2018-04-26T12:22:01.827Z,20.6
2018-04-26T12:23:05.766Z,20.6
2018-04-26T12:24:07.399Z,20.6
2018-04-26T12:25:13.792Z,20.5
2018-04-26T12:26:15.146Z,20.5
2018-04-26T12:27:19.450Z,20.5
2018-04-26T12:28:20.888Z,20.6
2018-04-26T12:29:22.612Z,20.5
2018-04-26T12:30:23.918Z,20.5
2018-04-26T12:31:27.368Z,20.6
2018-04-26T12:32:28.756Z,20.6
2018-04-26T12:33:37.690Z,20.6
2018-04-26T12:34:39.636Z,20.6
2018-04-26T12:35:41.186Z,20.5
2018-04-26T12:36:43.728Z,20.6
2018-04-26T12:37:45.228Z,20.7
2018-04-26T12:38:46.596Z,20.7
2018-04-26T12:39:49.444Z,20.7
2018-04-26T12:40:50.965Z,20.7
2018-04-26T12:41:52.358Z,20.7
2018-04-26T12:42:56.550Z,20.7
2018-04-26T12:43:57.913Z,20.7
2018-04-26T12:44:59.327Z,20.6
2018-04-26T12:46:01.847Z,20.6
2018-04-26T12:47:03.230Z,20.6
2018-04-26T12:48:05.041Z,20.5
2018-04-26T12:49:08.038Z,20.6
2018-04-26T12:50:09.670Z,20.6
2018-04-26T12:51:11.325Z,20.7
2018-04-26T12:52:12.684Z,20.7
2018-04-26T12:53:14.621Z,20.7
2018-04-26T12:54:16.227Z,20.7
2018-04-26T12:55:17.926Z,20.7
2018-04-26T12:56:19.525Z,20.7
2018-04-26T12:57:23.654Z,20.7
2018-04-26T12:58:25.466Z,20.7
2018-04-26T12:59:30.854Z,20.7
2018-04-26T13:00:41.909Z,20.7
2018-04-26T13:01:43.922Z,20.7
2018-04-26T13:02:46.815Z,20.6
2018-04-26T13:03:50.356Z,20.7
2018-04-26T13:04:52.301Z,20.7
2018-04-26T13:05:54.043Z,20.7
2018-04-26T13:06:55.821Z,20.6
2018-04-26T13:07:57.255Z,20.5
2018-04-26T13:08:58.707Z,20.6
2018-04-26T13:10:00.228Z,20.6
2018-04-26T13:11:01.757Z,20.6
2018-04-26T13:12:04.000Z,20.5
2018-04-26T13:13:06.147Z,20.6
2018-04-26T13:14:07.881Z,20.6
2018-04-26T13:15:09.504Z,20.6
2018-04-26T13:16:16.125Z,20.5
2018-04-26T13:17:24.147Z,20.7
2018-04-26T13:18:25.684Z,20.6
2018-04-26T13:19:27.732Z,20.7
2018-04-26T13:20:29.765Z,20.7
2018-04-26T13:21:31.295Z,20.7
2018-04-26T13:22:33.157Z,20.7
2018-04-26T13:23:35.660Z,20.6
2018-04-26T13:24:40.248Z,20.7
2018-04-26T13:25:44.981Z,20.6
2018-04-26T13:26:46.816Z,20.6
2018-04-26T13:27:48.317Z,20.6
2018-04-26T13:28:50.680Z,20.6
2018-04-26T13:29:52.273Z,20.6
2018-04-26T13:30:53.717Z,20.6
2018-04-26T13:31:55.427Z,20.5
2018-04-26T13:32:57.003Z,20.6
2018-04-26T13:33:58.497Z,20.6
2018-04-26T13:35:00.288Z,20.5
2018-04-26T13:36:04.674Z,20.7
2018-04-26T13:37:21.316Z,20.6
2018-04-26T13:39:30.589Z,20.6
2018-04-26T13:40:32.224Z,20.6
2018-04-26T13:41:33.736Z,20.6
2018-04-26T13:42:35.329Z,20.6
2018-04-26T13:43:36.995Z,20.6
2018-04-26T13:44:38.756Z,20.6
2018-04-26T13:45:40.384Z,20.6
2018-04-26T13:46:41.837Z,20.6
2018-04-26T13:47:49.917Z,20.6
2018-04-26T13:48:52.170Z,20.5
2018-04-26T13:49:53.648Z,20.5
2018-04-26T13:50:55.179Z,20.5
2018-04-26T13:51:56.879Z,20.6
2018-04-26T13:52:58.264Z,20.5
2018-04-26T13:54:00.270Z,20.5
2018-04-26T13:55:01.974Z,20.5
2018-04-26T13:56:03.802Z,20.5
2018-04-26T13:57:05.581Z,20.5
2018-04-26T13:58:09.167Z,20.5
2018-04-26T13:59:12.324Z,20.4
2018-04-26T14:00:14.045Z,20.5
2018-04-26T14:01:15.543Z,20.5
2018-04-26T14:02:17.581Z,20.5
2018-04-26T14:03:21.676Z,20.5
2018-04-26T14:04:26.281Z,20.5
2018-04-26T14:05:28.172Z,20.5
2018-04-26T14:06:30.111Z,20.5
2018-04-26T14:07:31.870Z,20.6
2018-04-26T14:08:34.737Z,20.5